sensor_id;sensor_type;location;lat;lon;timestamp;pressure;altitude;pressure_sealevel;temperature;humidity
4858;BME280;58975;51.978;8.472;2023-07-24T00:04:40;99450.84;;;17.37;100.00
4858;BME280;58975;51.978;8.472;2023-07-24T00:09:36;99452.25;;;17.33;100.00
4858;BME280;58975;51.978;8.472;2023-07-24T00:14:33;99452.34;;;17.40;100.00
4858;BME280;58975;51.978;8.472;2023-07-24T00:19:29;99433.97;;;17.43;100.00
4858;BME280;58975;51.978;8.472;2023-07-24T00:24:25;99419.84;;;17.41;100.00
4858;BME280;58975;51.978;8.472;2023-07-24T00:29:22;99417.53;;;17.38;100.00
4858;BME280;58975;51.978;8.472;2023-07-24T00:34:18;99415.03;;;17.37;100.00
4858;BME280;58975;51.978;8.472;2023-07-24T00:39:15;99410.47;;;17.37;100.00
4858;BME280;58975;51.978;8.472;2023-07-24T00:44:11;99405.50;;;17.34;100.00
4858;BME280;58975;51.978;8.472;2023-07-24T00:49:08;99403.47;;;17.36;100.00
4858;BME280;58975;51.978;8.472;2023-07-24T00:54:05;99400.28;;;17.33;100.00
4858;BME280;58975;51.978;8.472;2023-07-24T00:59:02;99392.53;;;17.23;100.00
4858;BME280;58975;51.978;8.472;2023-07-24T01:03:59;99385.75;;;17.27;100.00
4858;BME280;58975;51.978;8.472;2023-07-24T01:08:57;99376.78;;;17.20;100.00
4858;BME280;58975;51.978;8.472;2023-07-24T01:13:59;99371.59;;;17.19;100.00
4858;BME280;58975;51.978;8.472;2023-07-24T01:18:59;99361.38;;;17.14;100.00
4858;BME280;58975;51.978;8.472;2023-07-24T01:24:23;99347.09;;;17.14;100.00
4858;BME280;58975;51.978;8.472;2023-07-24T01:29:25;99348.31;;;17.11;100.00
4858;BME280;58975;51.978;8.472;2023-07-24T01:34:22;99352.69;;;17.12;100.00
4858;BME280;58975;51.978;8.472;2023-07-24T01:39:18;99340.97;;;17.20;100.00
4858;BME280;58975;51.978;8.472;2023-07-24T01:44:15;99339.97;;;17.06;100.00
4858;BME280;58975;51.978;8.472;2023-07-24T01:49:11;99334.09;;;16.96;100.00
4858;BME280;58975;51.978;8.472;2023-07-24T01:54:08;99330.38;;;16.97;100.00
4858;BME280;58975;51.978;8.472;2023-07-24T01:59:05;99333.06;;;16.97;100.00
4858;BME280;58975;51.978;8.472;2023-07-24T02:04:02;99328.44;;;16.91;100.00
4858;BME280;58975;51.978;8.472;2023-07-24T02:08:58;99328.97;;;17.01;100.00
4858;BME280;58975;51.978;8.472;2023-07-24T02:13:55;99329.63;;;17.03;100.00
4858;BME280;58975;51.978;8.472;2023-07-24T02:18:51;99324.81;;;16.98;100.00
4858;BME280;58975;51.978;8.472;2023-07-24T02:23:48;99325.75;;;16.91;100.00
4858;BME280;58975;51.978;8.472;2023-07-24T02:28:45;99309.81;;;16.89;100.00
4858;BME280;58975;51.978;8.472;2023-07-24T02:33:41;99314.53;;;16.87;100.00
4858;BME280;58975;51.978;8.472;2023-07-24T02:38:38;99320.94;;;16.86;100.00
4858;BME280;58975;51.978;8.472;2023-07-24T02:43:35;99315.50;;;16.80;100.00
4858;BME280;58975;51.978;8.472;2023-07-24T02:48:31;99300.13;;;16.74;100.00
4858;BME280;58975;51.978;8.472;2023-07-24T02:53:28;99306.53;;;16.73;100.00
4858;BME280;58975;51.978;8.472;2023-07-24T02:58:24;99304.00;;;16.71;100.00
4858;BME280;58975;51.978;8.472;2023-07-24T03:03:20;99295.28;;;16.54;100.00
4858;BME280;58975;51.978;8.472;2023-07-24T03:08:17;99291.81;;;16.39;100.00
4858;BME280;58975;51.978;8.472;2023-07-24T03:13:13;99297.84;;;16.41;100.00
4858;BME280;58975;51.978;8.472;2023-07-24T03:18:10;99296.25;;;16.32;100.00
4858;BME280;58975;51.978;8.472;2023-07-24T03:23:06;99290.72;;;16.19;100.00
4858;BME280;58975;51.978;8.472;2023-07-24T03:28:03;99281.94;;;16.11;100.00
4858;BME280;58975;51.978;8.472;2023-07-24T03:33:01;99286.84;;;16.07;100.00
4858;BME280;58975;51.978;8.472;2023-07-24T03:37:58;99282.78;;;16.11;100.00
4858;BME280;58975;51.978;8.472;2023-07-24T03:42:54;99287.56;;;16.16;100.00
4858;BME280;58975;51.978;8.472;2023-07-24T03:47:51;99296.91;;;16.20;100.00
4858;BME280;58975;51.978;8.472;2023-07-24T03:52:47;99277.19;;;16.27;100.00
4858;BME280;58975;51.978;8.472;2023-07-24T03:57:44;99271.47;;;16.30;100.00
4858;BME280;58975;51.978;8.472;2023-07-24T04:02:40;99269.41;;;16.32;100.00
4858;BME280;58975;51.978;8.472;2023-07-24T04:07:37;99256.25;;;16.37;100.00
4858;BME280;58975;51.978;8.472;2023-07-24T04:12:34;99234.53;;;16.39;100.00
4858;BME280;58975;51.978;8.472;2023-07-24T04:17:30;99225.69;;;16.38;100.00
4858;BME280;58975;51.978;8.472;2023-07-24T04:22:28;99215.44;;;16.48;100.00
4858;BME280;58975;51.978;8.472;2023-07-24T04:27:25;99205.59;;;16.55;100.00
4858;BME280;58975;51.978;8.472;2023-07-24T04:32:21;99224.84;;;16.74;100.00
4858;BME280;58975;51.978;8.472;2023-07-24T04:37:18;99219.72;;;16.79;100.00
4858;BME280;58975;51.978;8.472;2023-07-24T04:42:14;99188.09;;;16.81;100.00
4858;BME280;58975;51.978;8.472;2023-07-24T04:47:11;99194.78;;;16.85;100.00
4858;BME280;58975;51.978;8.472;2023-07-24T04:52:07;99182.47;;;16.97;100.00
4858;BME280;58975;51.978;8.472;2023-07-24T04:57:04;99168.63;;;17.00;100.00
4858;BME280;58975;51.978;8.472;2023-07-24T05:02:00;99149.81;;;17.00;100.00
4858;BME280;58975;51.978;8.472;2023-07-24T05:06:57;99137.19;;;17.00;100.00
4858;BME280;58975;51.978;8.472;2023-07-24T05:11:53;99122.50;;;17.03;100.00
4858;BME280;58975;51.978;8.472;2023-07-24T05:16:50;99128.28;;;17.00;100.00
4858;BME280;58975;51.978;8.472;2023-07-24T05:21:46;99126.66;;;17.06;100.00
4858;BME280;58975;51.978;8.472;2023-07-24T05:26:43;99114.69;;;17.08;100.00
4858;BME280;58975;51.978;8.472;2023-07-24T05:31:39;99121.28;;;17.06;100.00
4858;BME280;58975;51.978;8.472;2023-07-24T05:36:36;99130.19;;;17.06;100.00
4858;BME280;58975;51.978;8.472;2023-07-24T05:41:32;99131.13;;;16.92;100.00
4858;BME280;58975;51.978;8.472;2023-07-24T05:46:29;99159.41;;;16.67;100.00
4858;BME280;58975;51.978;8.472;2023-07-24T05:51:26;99171.56;;;16.63;100.00
4858;BME280;58975;51.978;8.472;2023-07-24T05:56:23;99181.19;;;16.72;100.00
4858;BME280;58975;51.978;8.472;2023-07-24T06:01:19;99202.13;;;16.76;100.00
4858;BME280;58975;51.978;8.472;2023-07-24T06:06:16;99226.94;;;16.78;100.00
4858;BME280;58975;51.978;8.472;2023-07-24T06:11:13;99235.22;;;16.77;100.00
4858;BME280;58975;51.978;8.472;2023-07-24T06:16:09;99242.63;;;16.75;100.00
4858;BME280;58975;51.978;8.472;2023-07-24T06:21:06;99260.94;;;16.86;100.00
4858;BME280;58975;51.978;8.472;2023-07-24T06:26:03;99273.25;;;16.95;100.00
4858;BME280;58975;51.978;8.472;2023-07-24T06:30:59;99280.25;;;17.11;100.00
4858;BME280;58975;51.978;8.472;2023-07-24T06:35:56;99280.63;;;17.08;100.00
4858;BME280;58975;51.978;8.472;2023-07-24T06:40:52;99293.38;;;17.20;100.00
4858;BME280;58975;51.978;8.472;2023-07-24T06:45:48;99289.38;;;17.37;100.00
4858;BME280;58975;51.978;8.472;2023-07-24T06:50:45;99301.28;;;17.49;100.00
4858;BME280;58975;51.978;8.472;2023-07-24T06:55:42;99298.72;;;17.41;100.00
4858;BME280;58975;51.978;8.472;2023-07-24T07:00:38;99282.34;;;17.36;100.00
4858;BME280;58975;51.978;8.472;2023-07-24T07:05:35;99263.69;;;17.35;100.00
4858;BME280;58975;51.978;8.472;2023-07-24T07:10:31;99256.94;;;17.45;100.00
4858;BME280;58975;51.978;8.472;2023-07-24T07:15:28;99235.22;;;17.47;100.00
4858;BME280;58975;51.978;8.472;2023-07-24T07:20:24;99226.59;;;17.79;100.00
4858;BME280;58975;51.978;8.472;2023-07-24T07:25:21;99213.22;;;17.99;100.00
4858;BME280;58975;51.978;8.472;2023-07-24T07:30:17;99196.44;;;18.04;100.00
4858;BME280;58975;51.978;8.472;2023-07-24T07:35:14;99185.94;;;18.15;100.00
4858;BME280;58975;51.978;8.472;2023-07-24T07:40:11;99173.72;;;18.19;100.00
4858;BME280;58975;51.978;8.472;2023-07-24T07:45:07;99164.75;;;17.99;100.00
4858;BME280;58975;51.978;8.472;2023-07-24T07:50:04;99164.75;;;17.99;100.00
4858;BME280;58975;51.978;8.472;2023-07-24T07:55:01;99170.84;;;18.27;100.00
4858;BME280;58975;51.978;8.472;2023-07-24T07:59:57;99164.13;;;18.58;100.00
4858;BME280;58975;51.978;8.472;2023-07-24T08:04:54;99133.66;;;19.10;100.00
4858;BME280;58975;51.978;8.472;2023-07-24T08:09:50;99119.50;;;19.34;100.00
4858;BME280;58975;51.978;8.472;2023-07-24T08:14:47;99102.91;;;19.17;100.00
4858;BME280;58975;51.978;8.472;2023-07-24T08:19:43;99092.53;;;19.14;100.00
4858;BME280;58975;51.978;8.472;2023-07-24T08:24:40;99088.59;;;19.23;100.00
4858;BME280;58975;51.978;8.472;2023-07-24T08:29:36;99076.81;;;18.85;100.00
4858;BME280;58975;51.978;8.472;2023-07-24T08:34:34;99086.34;;;18.68;100.00
4858;BME280;58975;51.978;8.472;2023-07-24T08:39:30;99084.91;;;18.72;100.00
4858;BME280;58975;51.978;8.472;2023-07-24T08:44:28;99087.00;;;18.89;100.00
4858;BME280;58975;51.978;8.472;2023-07-24T08:49:26;99082.19;;;18.98;100.00
4858;BME280;58975;51.978;8.472;2023-07-24T08:54:26;99063.53;;;18.97;100.00
4858;BME280;58975;51.978;8.472;2023-07-24T08:59:22;99076.38;;;19.08;100.00
4858;BME280;58975;51.978;8.472;2023-07-24T09:04:19;99077.41;;;18.94;100.00
4858;BME280;58975;51.978;8.472;2023-07-24T09:09:17;99057.72;;;19.00;100.00
4858;BME280;58975;51.978;8.472;2023-07-24T09:14:27;99062.41;;;19.44;100.00
4858;BME280;58975;51.978;8.472;2023-07-24T09:19:28;99060.88;;;19.61;100.00
4858;BME280;58975;51.978;8.472;2023-07-24T09:24:24;99051.31;;;19.65;100.00
4858;BME280;58975;51.978;8.472;2023-07-24T09:29:21;99047.44;;;19.92;100.00
4858;BME280;58975;51.978;8.472;2023-07-24T09:34:18;99053.63;;;20.06;100.00
4858;BME280;58975;51.978;8.472;2023-07-24T09:39:22;99046.16;;;19.57;100.00
4858;BME280;58975;51.978;8.472;2023-07-24T09:44:19;99046.84;;;19.32;100.00
4858;BME280;58975;51.978;8.472;2023-07-24T09:49:15;99048.59;;;18.81;100.00
4858;BME280;58975;51.978;8.472;2023-07-24T09:54:22;99061.03;;;18.56;100.00
4858;BME280;58975;51.978;8.472;2023-07-24T09:59:21;99065.81;;;18.67;100.00
4858;BME280;58975;51.978;8.472;2023-07-24T10:04:18;99071.38;;;19.11;100.00
4858;BME280;58975;51.978;8.472;2023-07-24T10:09:15;99053.06;;;19.40;100.00
4858;BME280;58975;51.978;8.472;2023-07-24T10:14:12;99040.09;;;19.68;100.00
4858;BME280;58975;51.978;8.472;2023-07-24T10:19:13;99033.91;;;19.54;100.00
4858;BME280;58975;51.978;8.472;2023-07-24T10:24:11;99025.84;;;20.55;100.00
4858;BME280;58975;51.978;8.472;2023-07-24T10:29:14;99020.34;;;20.86;100.00
4858;BME280;58975;51.978;8.472;2023-07-24T10:34:11;99000.16;;;20.89;100.00
4858;BME280;58975;51.978;8.472;2023-07-24T10:39:17;99010.22;;;20.32;100.00
4858;BME280;58975;51.978;8.472;2023-07-24T10:44:17;99018.78;;;20.29;100.00
4858;BME280;58975;51.978;8.472;2023-07-24T10:49:13;99029.94;;;20.01;100.00
4858;BME280;58975;51.978;8.472;2023-07-24T10:54:10;99031.25;;;20.23;100.00
4858;BME280;58975;51.978;8.472;2023-07-24T10:59:06;99029.72;;;21.08;100.00
4858;BME280;58975;51.978;8.472;2023-07-24T11:04:03;99019.50;;;21.65;100.00
4858;BME280;58975;51.978;8.472;2023-07-24T11:09:00;99020.97;;;21.31;100.00
4858;BME280;58975;51.978;8.472;2023-07-24T11:13:56;99017.19;;;20.46;100.00
4858;BME280;58975;51.978;8.472;2023-07-24T11:18:53;99028.25;;;20.07;100.00
4858;BME280;58975;51.978;8.472;2023-07-24T11:23:53;99031.00;;;19.56;100.00
4858;BME280;58975;51.978;8.472;2023-07-24T11:28:50;99033.47;;;19.64;100.00
4858;BME280;58975;51.978;8.472;2023-07-24T11:33:47;99037.56;;;19.73;100.00
4858;BME280;58975;51.978;8.472;2023-07-24T11:38:46;99038.28;;;19.49;100.00
4858;BME280;58975;51.978;8.472;2023-07-24T11:43:46;99047.34;;;18.97;100.00
4858;BME280;58975;51.978;8.472;2023-07-24T11:48:44;99053.53;;;18.44;100.00
4858;BME280;58975;51.978;8.472;2023-07-24T11:53:40;99038.19;;;18.32;100.00
4858;BME280;58975;51.978;8.472;2023-07-24T11:58:36;99039.22;;;18.51;100.00
4858;BME280;58975;51.978;8.472;2023-07-24T12:03:33;99025.72;;;19.10;100.00
4858;BME280;58975;51.978;8.472;2023-07-24T12:08:34;99010.69;;;19.40;100.00
4858;BME280;58975;51.978;8.472;2023-07-24T12:13:30;98997.50;;;19.12;100.00
4858;BME280;58975;51.978;8.472;2023-07-24T12:18:28;98982.91;;;19.26;100.00
4858;BME280;58975;51.978;8.472;2023-07-24T12:23:25;98984.38;;;19.22;100.00
4858;BME280;58975;51.978;8.472;2023-07-24T12:28:21;98987.16;;;18.96;100.00
4858;BME280;58975;51.978;8.472;2023-07-24T12:33:18;98996.50;;;18.87;100.00
4858;BME280;58975;51.978;8.472;2023-07-24T12:38:14;98998.41;;;18.67;100.00
4858;BME280;58975;51.978;8.472;2023-07-24T12:43:11;99017.47;;;18.46;100.00
4858;BME280;58975;51.978;8.472;2023-07-24T12:48:07;99063.66;;;18.16;100.00
4858;BME280;58975;51.978;8.472;2023-07-24T12:53:04;99079.53;;;17.85;100.00
4858;BME280;58975;51.978;8.472;2023-07-24T12:58:06;99092.16;;;17.43;100.00
4858;BME280;58975;51.978;8.472;2023-07-24T13:03:02;99076.41;;;17.40;100.00
4858;BME280;58975;51.978;8.472;2023-07-24T13:07:59;99075.16;;;17.36;100.00
4858;BME280;58975;51.978;8.472;2023-07-24T13:12:55;99091.28;;;17.36;100.00
4858;BME280;58975;51.978;8.472;2023-07-24T13:17:52;99121.53;;;17.45;100.00
4858;BME280;58975;51.978;8.472;2023-07-24T13:22:49;99144.13;;;17.44;100.00
4858;BME280;58975;51.978;8.472;2023-07-24T13:27:45;99165.75;;;17.29;100.00
4858;BME280;58975;51.978;8.472;2023-07-24T13:32:42;99168.81;;;17.26;100.00
4858;BME280;58975;51.978;8.472;2023-07-24T13:37:38;99165.28;;;16.98;100.00
4858;BME280;58975;51.978;8.472;2023-07-24T13:42:35;99139.72;;;16.81;100.00
4858;BME280;58975;51.978;8.472;2023-07-24T13:47:31;99128.44;;;16.71;100.00
4858;BME280;58975;51.978;8.472;2023-07-24T13:52:28;99062.75;;;16.80;100.00
4858;BME280;58975;51.978;8.472;2023-07-24T13:57:24;98954.13;;;17.56;100.00
4858;BME280;58975;51.978;8.472;2023-07-24T14:02:21;98903.66;;;18.30;100.00
4858;BME280;58975;51.978;8.472;2023-07-24T14:07:17;98880.16;;;18.77;100.00
4858;BME280;58975;51.978;8.472;2023-07-24T14:12:14;98870.28;;;19.47;100.00
4858;BME280;58975;51.978;8.472;2023-07-24T14:17:10;98860.69;;;20.32;100.00
4858;BME280;58975;51.978;8.472;2023-07-24T14:22:07;98869.88;;;20.31;100.00
4858;BME280;58975;51.978;8.472;2023-07-24T14:27:03;98874.25;;;19.75;100.00
4858;BME280;58975;51.978;8.472;2023-07-24T14:32:00;98891.53;;;19.36;100.00
4858;BME280;58975;51.978;8.472;2023-07-24T14:36:56;98885.28;;;19.43;100.00
4858;BME280;58975;51.978;8.472;2023-07-24T14:41:52;98887.25;;;19.85;100.00
4858;BME280;58975;51.978;8.472;2023-07-24T14:46:49;98892.34;;;20.00;100.00
4858;BME280;58975;51.978;8.472;2023-07-24T14:51:45;98883.78;;;19.02;100.00
4858;BME280;58975;51.978;8.472;2023-07-24T14:56:42;98874.03;;;19.01;100.00
4858;BME280;58975;51.978;8.472;2023-07-24T15:01:52;98866.38;;;19.36;100.00
4858;BME280;58975;51.978;8.472;2023-07-24T15:06:48;98858.50;;;19.97;100.00
4858;BME280;58975;51.978;8.472;2023-07-24T15:11:45;98867.97;;;20.31;100.00
4858;BME280;58975;51.978;8.472;2023-07-24T15:16:42;98850.81;;;20.80;100.00
4858;BME280;58975;51.978;8.472;2023-07-24T15:21:38;98864.59;;;20.36;100.00
4858;BME280;58975;51.978;8.472;2023-07-24T15:26:35;98865.06;;;20.33;100.00
4858;BME280;58975;51.978;8.472;2023-07-24T15:31:31;98870.63;;;20.38;100.00
4858;BME280;58975;51.978;8.472;2023-07-24T15:36:34;98866.56;;;20.47;100.00
4858;BME280;58975;51.978;8.472;2023-07-24T15:41:32;98867.69;;;20.39;100.00
4858;BME280;58975;51.978;8.472;2023-07-24T15:46:29;98872.44;;;19.94;100.00
4858;BME280;58975;51.978;8.472;2023-07-24T15:51:28;98867.28;;;19.61;100.00
4858;BME280;58975;51.978;8.472;2023-07-24T15:56:26;98870.44;;;19.58;100.00
4858;BME280;58975;51.978;8.472;2023-07-24T16:01:23;98872.78;;;19.48;100.00
4858;BME280;58975;51.978;8.472;2023-07-24T16:06:19;98885.88;;;19.45;100.00
4858;BME280;58975;51.978;8.472;2023-07-24T16:11:16;98888.19;;;19.34;100.00
4858;BME280;58975;51.978;8.472;2023-07-24T16:16:12;98891.53;;;19.36;100.00
4858;BME280;58975;51.978;8.472;2023-07-24T16:21:11;98896.06;;;19.43;100.00
4858;BME280;58975;51.978;8.472;2023-07-24T16:26:07;98899.47;;;19.18;100.00
4858;BME280;58975;51.978;8.472;2023-07-24T16:31:04;98890.41;;;19.51;100.00
4858;BME280;58975;51.978;8.472;2023-07-24T16:36:00;98898.19;;;19.97;100.00
4858;BME280;58975;51.978;8.472;2023-07-24T16:40:57;98887.66;;;20.13;100.00
4858;BME280;58975;51.978;8.472;2023-07-24T16:45:53;98884.75;;;20.15;100.00
4858;BME280;58975;51.978;8.472;2023-07-24T16:50:52;98867.34;;;20.04;100.00
4858;BME280;58975;51.978;8.472;2023-07-24T16:55:49;98856.97;;;19.83;100.00
4858;BME280;58975;51.978;8.472;2023-07-24T17:00:45;98879.81;;;19.56;100.00
4858;BME280;58975;51.978;8.472;2023-07-24T17:05:42;98908.25;;;19.07;100.00
4858;BME280;58975;51.978;8.472;2023-07-24T17:10:44;98927.47;;;18.40;100.00
4858;BME280;58975;51.978;8.472;2023-07-24T17:15:41;98926.03;;;17.98;100.00
4858;BME280;58975;51.978;8.472;2023-07-24T17:20:38;98916.50;;;17.89;100.00
4858;BME280;58975;51.978;8.472;2023-07-24T17:25:35;98937.03;;;18.03;100.00
4858;BME280;58975;51.978;8.472;2023-07-24T17:30:32;98961.25;;;17.96;100.00
4858;BME280;58975;51.978;8.472;2023-07-24T17:35:28;98979.69;;;18.00;100.00
4858;BME280;58975;51.978;8.472;2023-07-24T17:40:25;98988.19;;;17.96;100.00
4858;BME280;58975;51.978;8.472;2023-07-24T17:45:22;99015.31;;;17.82;100.00
4858;BME280;58975;51.978;8.472;2023-07-24T17:50:19;99038.03;;;17.66;100.00
4858;BME280;58975;51.978;8.472;2023-07-24T17:55:16;99028.91;;;17.26;100.00
4858;BME280;58975;51.978;8.472;2023-07-24T18:00:13;99020.34;;;17.10;100.00
4858;BME280;58975;51.978;8.472;2023-07-24T18:05:10;99027.91;;;16.93;100.00
4858;BME280;58975;51.978;8.472;2023-07-24T18:10:07;99044.19;;;16.85;100.00
4858;BME280;58975;51.978;8.472;2023-07-24T18:15:04;99014.09;;;17.98;100.00
4858;BME280;58975;51.978;8.472;2023-07-24T18:20:01;99012.91;;;18.26;100.00
4858;BME280;58975;51.978;8.472;2023-07-24T18:24:57;99015.31;;;17.34;100.00
4858;BME280;58975;51.978;8.472;2023-07-24T18:29:54;99019.56;;;18.76;100.00
4858;BME280;58975;51.978;8.472;2023-07-24T18:34:50;99018.22;;;18.00;100.00
4858;BME280;58975;51.978;8.472;2023-07-24T18:39:46;99032.81;;;17.58;100.00
4858;BME280;58975;51.978;8.472;2023-07-24T18:44:43;99040.56;;;17.81;100.00
4858;BME280;58975;51.978;8.472;2023-07-24T18:49:39;99043.38;;;18.33;100.00
4858;BME280;58975;51.978;8.472;2023-07-24T18:54:36;99050.59;;;18.07;100.00
4858;BME280;58975;51.978;8.472;2023-07-24T18:59:32;99059.06;;;16.81;100.00
4858;BME280;58975;51.978;8.472;2023-07-24T19:04:29;99074.91;;;16.27;100.00
4858;BME280;58975;51.978;8.472;2023-07-24T19:09:25;99075.41;;;15.80;100.00
4858;BME280;58975;51.978;8.472;2023-07-24T19:14:21;99085.81;;;15.53;100.00
4858;BME280;58975;51.978;8.472;2023-07-24T19:19:18;99095.75;;;15.45;100.00
4858;BME280;58975;51.978;8.472;2023-07-24T19:24:14;99102.81;;;15.31;100.00
4858;BME280;58975;51.978;8.472;2023-07-24T19:29:11;99112.41;;;15.26;100.00
4858;BME280;58975;51.978;8.472;2023-07-24T19:34:07;99123.69;;;15.21;100.00
4858;BME280;58975;51.978;8.472;2023-07-24T19:39:04;99133.41;;;15.22;100.00
4858;BME280;58975;51.978;8.472;2023-07-24T19:44:02;99148.88;;;15.20;100.00
4858;BME280;58975;51.978;8.472;2023-07-24T19:48:59;99150.34;;;15.23;100.00
4858;BME280;58975;51.978;8.472;2023-07-24T19:53:55;99144.69;;;15.18;100.00
4858;BME280;58975;51.978;8.472;2023-07-24T19:58:52;99158.16;;;15.09;100.00
4858;BME280;58975;51.978;8.472;2023-07-24T20:03:49;99175.84;;;15.04;100.00
4858;BME280;58975;51.978;8.472;2023-07-24T20:08:46;99189.53;;;15.09;100.00
4858;BME280;58975;51.978;8.472;2023-07-24T20:13:43;99201.56;;;15.13;100.00
4858;BME280;58975;51.978;8.472;2023-07-24T20:18:39;99202.88;;;15.17;100.00
4858;BME280;58975;51.978;8.472;2023-07-24T20:23:36;99211.56;;;15.19;100.00
4858;BME280;58975;51.978;8.472;2023-07-24T20:28:32;99208.34;;;15.24;100.00
4858;BME280;58975;51.978;8.472;2023-07-24T20:33:29;99220.16;;;15.29;100.00
4858;BME280;58975;51.978;8.472;2023-07-24T20:38:27;99228.88;;;15.31;100.00
4858;BME280;58975;51.978;8.472;2023-07-24T20:43:23;99226.56;;;15.28;100.00
4858;BME280;58975;51.978;8.472;2023-07-24T20:48:20;99239.31;;;15.26;100.00
4858;BME280;58975;51.978;8.472;2023-07-24T20:53:20;99243.19;;;15.24;100.00
4858;BME280;58975;51.978;8.472;2023-07-24T20:58:17;99261.13;;;15.23;100.00
4858;BME280;58975;51.978;8.472;2023-07-24T21:03:13;99267.50;;;15.22;100.00
4858;BME280;58975;51.978;8.472;2023-07-24T21:08:10;99275.38;;;15.24;100.00
4858;BME280;58975;51.978;8.472;2023-07-24T21:13:06;99285.44;;;15.22;100.00
4858;BME280;58975;51.978;8.472;2023-07-24T21:18:02;99289.03;;;15.14;100.00
4858;BME280;58975;51.978;8.472;2023-07-24T21:22:59;99278.38;;;15.06;100.00
4858;BME280;58975;51.978;8.472;2023-07-24T21:27:55;99286.78;;;15.03;100.00
4858;BME280;58975;51.978;8.472;2023-07-24T21:32:52;99283.91;;;15.04;100.00
4858;BME280;58975;51.978;8.472;2023-07-24T21:37:48;99296.06;;;14.92;100.00
4858;BME280;58975;51.978;8.472;2023-07-24T21:42:45;99285.94;;;14.80;100.00
4858;BME280;58975;51.978;8.472;2023-07-24T21:47:41;99286.50;;;14.67;100.00
4858;BME280;58975;51.978;8.472;2023-07-24T21:52:37;99280.34;;;14.58;100.00
4858;BME280;58975;51.978;8.472;2023-07-24T21:57:34;99294.09;;;14.55;100.00
4858;BME280;58975;51.978;8.472;2023-07-24T22:02:30;99301.50;;;14.53;100.00
4858;BME280;58975;51.978;8.472;2023-07-24T22:07:27;99306.22;;;14.43;100.00
4858;BME280;58975;51.978;8.472;2023-07-24T22:12:23;99296.53;;;14.34;100.00
4858;BME280;58975;51.978;8.472;2023-07-24T22:17:20;99293.38;;;14.31;100.00
4858;BME280;58975;51.978;8.472;2023-07-24T22:22:17;99302.56;;;14.28;100.00
4858;BME280;58975;51.978;8.472;2023-07-24T22:27:13;99297.72;;;14.23;100.00
4858;BME280;58975;51.978;8.472;2023-07-24T22:32:10;99305.94;;;14.22;100.00
4858;BME280;58975;51.978;8.472;2023-07-24T22:37:06;99304.78;;;14.16;100.00
4858;BME280;58975;51.978;8.472;2023-07-24T22:42:03;99303.09;;;14.15;100.00
4858;BME280;58975;51.978;8.472;2023-07-24T22:47:00;99303.66;;;14.11;100.00
4858;BME280;58975;51.978;8.472;2023-07-24T22:51:57;99308.31;;;14.09;100.00
4858;BME280;58975;51.978;8.472;2023-07-24T22:56:53;99313.31;;;14.12;100.00
4858;BME280;58975;51.978;8.472;2023-07-24T23:01:51;99317.34;;;14.08;100.00
4858;BME280;58975;51.978;8.472;2023-07-24T23:06:48;99323.38;;;14.10;100.00
4858;BME280;58975;51.978;8.472;2023-07-24T23:11:44;99320.38;;;14.05;100.00
4858;BME280;58975;51.978;8.472;2023-07-24T23:16:41;99323.06;;;14.05;100.00
4858;BME280;58975;51.978;8.472;2023-07-24T23:21:38;99324.59;;;13.99;100.00
4858;BME280;58975;51.978;8.472;2023-07-24T23:26:34;99323.09;;;13.89;100.00
4858;BME280;58975;51.978;8.472;2023-07-24T23:31:30;99327.97;;;13.85;100.00
4858;BME280;58975;51.978;8.472;2023-07-24T23:36:27;99330.81;;;13.84;100.00
4858;BME280;58975;51.978;8.472;2023-07-24T23:41:24;99329.50;;;13.80;100.00
4858;BME280;58975;51.978;8.472;2023-07-24T23:46:22;99332.31;;;13.78;100.00
4858;BME280;58975;51.978;8.472;2023-07-24T23:51:19;99337.84;;;13.68;100.00
4858;BME280;58975;51.978;8.472;2023-07-24T23:56:16;99332.19;;;13.63;100.00
